Time;durP1;ratioP1;P1;durP2;ratioP2;P2;SDS_P1;SDS_P2;PMS_P1;PMS_P2;Temp;Humidity;BMP_temperature;BMP_pressure;BME280_temperature;BME280_humidity;BME280_pressure;Samples;Min_cycle;Max_cycle;Signal;HPM_P1;HPM_P2
2024/01/19 00:01:48;;;;;;;0.95;0.60;;;21.30;36.90;;;;;;5112833;27;22900;-38
2024/01/19 00:04:15;;;;;;;0.77;0.50;;;21.30;36.80;;;;;;5119123;27;20039;-38
2024/01/19 00:06:41;;;;;;;0.73;0.60;;;21.20;36.80;;;;;;5119001;28;20032;-39
2024/01/19 00:09:07;;;;;;;0.98;0.55;;;21.20;37.00;;;;;;5115585;28;20528;-38
2024/01/19 00:11:33;;;;;;;0.77;0.60;;;21.20;36.90;;;;;;5118749;28;20047;-40
2024/01/19 00:13:59;;;;;;;0.63;0.50;;;21.30;36.90;;;;;;5113058;27;20019;-39
2024/01/19 00:16:26;;;;;;;0.70;0.60;;;21.30;36.90;;;;;;5117300;28;20483;-39
2024/01/19 00:18:52;;;;;;;1.40;0.50;;;21.30;36.70;;;;;;5114302;28;20024;-40
2024/01/19 00:21:18;;;;;;;1.17;0.50;;;21.30;36.70;;;;;;5110929;27;20136;-40
2024/01/19 00:23:44;;;;;;;0.85;0.50;;;21.30;36.70;;;;;;5113584;28;20036;-39
2024/01/19 00:26:11;;;;;;;0.75;0.50;;;21.30;36.80;;;;;;5117092;27;20106;-38
2024/01/19 00:28:37;;;;;;;0.97;0.53;;;21.30;36.90;;;;;;5113573;28;20571;-39
2024/01/19 00:31:03;;;;;;;1.85;0.40;;;21.30;36.80;;;;;;5112965;28;20028;-38
2024/01/19 00:33:29;;;;;;;0.40;0.40;;;21.40;36.80;;;;;;5106803;28;20051;-39
2024/01/19 00:35:55;;;;;;;2.65;0.75;;;21.30;36.70;;;;;;5118361;28;20172;-39
2024/01/19 00:38:21;;;;;;;0.70;0.50;;;21.30;36.90;;;;;;5111217;27;20024;-39
2024/01/19 00:40:48;;;;;;;1.00;0.47;;;21.30;37.00;;;;;;5122512;28;20051;-37
2024/01/19 00:43:14;;;;;;;0.63;0.60;;;21.30;37.00;;;;;;5117549;28;20075;-40
2024/01/19 00:45:40;;;;;;;0.98;0.50;;;21.30;36.90;;;;;;5110886;28;20057;-36
2024/01/19 00:48:06;;;;;;;0.98;0.70;;;21.40;37.10;;;;;;5110395;28;20032;-34
2024/01/19 00:50:32;;;;;;;0.70;0.63;;;21.40;36.90;;;;;;5114889;28;20031;-35
2024/01/19 00:52:58;;;;;;;1.05;0.70;;;21.40;36.90;;;;;;5110562;28;20031;-35
2024/01/19 00:55:24;;;;;;;1.00;0.60;;;21.40;36.80;;;;;;5121605;27;20032;-35
2024/01/19 00:57:51;;;;;;;4.20;0.85;;;21.40;36.60;;;;;;5114095;27;20030;-36
2024/01/19 01:00:17;;;;;;;1.08;0.63;;;21.40;36.80;;;;;;5106829;28;20063;-37
2024/01/19 01:02:43;;;;;;;0.75;0.47;;;21.50;36.80;;;;;;5109352;28;20028;-34
2024/01/19 01:05:09;;;;;;;6.72;0.75;;;21.50;36.90;;;;;;5110631;27;20054;-33
2024/01/19 01:07:35;;;;;;;1.10;0.70;;;21.50;36.80;;;;;;5123285;27;20043;-35
2024/01/19 01:10:02;;;;;;;1.98;0.70;;;21.50;36.70;;;;;;5112511;28;20058;-37
2024/01/19 01:12:28;;;;;;;0.80;0.75;;;21.50;36.70;;;;;;5115246;28;20020;-36
2024/01/19 01:14:54;;;;;;;0.70;0.60;;;21.50;36.80;;;;;;5115195;28;20031;-35
2024/01/19 01:17:20;;;;;;;0.55;0.50;;;21.50;36.80;;;;;;5113555;28;20024;-34
2024/01/19 01:19:46;;;;;;;0.70;0.70;;;21.60;36.90;;;;;;5114309;28;20035;-35
2024/01/19 01:22:13;;;;;;;1.73;0.50;;;21.60;36.90;;;;;;5114870;28;20024;-35
2024/01/19 01:24:39;;;;;;;0.80;0.60;;;21.50;36.90;;;;;;5116779;28;20040;-34
2024/01/19 01:27:05;;;;;;;0.77;0.68;;;21.50;36.90;;;;;;5112879;28;20044;-33
2024/01/19 01:29:31;;;;;;;1.23;0.70;;;21.50;36.80;;;;;;5114721;28;20039;-37
2024/01/19 01:31:57;;;;;;;0.70;0.60;;;21.60;36.80;;;;;;5114839;27;20020;-36
2024/01/19 01:34:23;;;;;;;0.75;0.60;;;21.60;36.80;;;;;;5114205;28;20031;-33
2024/01/19 01:36:50;;;;;;;1.00;0.50;;;21.60;36.90;;;;;;5109528;28;20122;-36
2024/01/19 01:39:16;;;;;;;0.65;0.63;;;21.60;36.90;;;;;;5111514;28;20016;-32
2024/01/19 01:41:44;;;;;;;1.08;0.70;;;21.60;37.00;;;;;;5116954;28;20032;-36
2024/01/19 01:44:10;;;;;;;0.80;0.52;;;21.60;36.90;;;;;;5112298;27;20086;-37
2024/01/19 01:46:36;;;;;;;2.05;0.60;;;21.60;36.90;;;;;;5110837;27;20020;-34
2024/01/19 01:49:02;;;;;;;1.00;0.90;;;21.70;36.90;;;;;;5109967;28;20047;-37
2024/01/19 01:51:29;;;;;;;1.45;0.70;;;21.70;36.90;;;;;;5112684;27;20033;-34
2024/01/19 01:53:56;;;;;;;0.93;0.60;;;21.70;36.90;;;;;;5109304;28;20024;-33
2024/01/19 01:56:23;;;;;;;0.50;0.50;;;21.60;36.90;;;;;;5116213;28;20064;-36
2024/01/19 01:58:49;;;;;;;1.10;0.80;;;21.60;36.90;;;;;;5112844;28;20026;-31
2024/01/19 02:01:15;;;;;;;0.90;0.70;;;21.70;36.90;;;;;;5115128;28;20032;-36
2024/01/19 02:03:41;;;;;;;1.45;0.75;;;21.70;36.90;;;;;;5111915;28;20023;-37
2024/01/19 02:06:07;;;;;;;1.10;0.80;;;21.70;36.90;;;;;;5114301;27;20031;-34
2024/01/19 02:08:34;;;;;;;0.95;0.70;;;21.70;36.90;;;;;;5112528;28;20073;-35
2024/01/19 02:11:00;;;;;;;0.87;0.70;;;21.70;36.90;;;;;;5114589;28;20042;-37
2024/01/19 02:13:26;;;;;;;1.13;0.60;;;21.70;37.00;;;;;;5110254;28;20032;-36
2024/01/19 02:15:52;;;;;;;1.05;0.60;;;21.70;37.00;;;;;;5119198;27;20053;-35
2024/01/19 02:18:18;;;;;;;1.08;0.70;;;21.80;37.10;;;;;;5118487;27;20035;-33
2024/01/19 02:20:44;;;;;;;1.33;0.90;;;21.80;37.10;;;;;;5115251;28;20019;-37
2024/01/19 02:23:13;;;;;;;0.80;0.52;;;21.70;37.00;;;;;;5119527;28;20032;-37
2024/01/19 02:25:40;;;;;;;0.90;0.68;;;21.70;37.10;;;;;;5116469;28;20043;-36
2024/01/19 02:28:06;;;;;;;1.67;0.77;;;21.70;37.10;;;;;;5107810;28;20115;-36
2024/01/19 02:30:32;;;;;;;3.08;0.70;;;21.70;37.10;;;;;;5104631;28;20280;-35
2024/01/19 02:32:59;;;;;;;1.30;0.50;;;21.80;37.20;;;;;;5113179;28;20055;-36
2024/01/19 02:35:25;;;;;;;0.77;0.45;;;21.70;37.10;;;;;;5115556;27;20024;-36
2024/01/19 02:37:51;;;;;;;1.42;0.82;;;21.70;37.10;;;;;;5113254;27;20803;-34
2024/01/19 02:40:17;;;;;;;1.03;0.93;;;21.70;37.10;;;;;;5106724;27;21739;-38
2024/01/19 02:42:44;;;;;;;0.73;0.65;;;21.70;37.10;;;;;;5110479;28;20096;-33
2024/01/19 02:45:10;;;;;;;0.90;0.60;;;21.70;37.10;;;;;;5108310;28;20051;-37
2024/01/19 02:47:36;;;;;;;0.68;0.68;;;21.80;37.20;;;;;;5115496;28;20028;-34
2024/01/19 02:50:02;;;;;;;1.00;0.80;;;21.80;37.20;;;;;;5116193;28;20035;-36
2024/01/19 02:52:29;;;;;;;0.60;0.52;;;21.70;37.10;;;;;;5111397;28;20024;-37
2024/01/19 02:54:55;;;;;;;1.17;0.73;;;21.70;37.20;;;;;;5117383;27;20028;-34
2024/01/19 02:57:21;;;;;;;1.00;0.70;;;21.70;37.20;;;;;;5113031;28;20062;-35
2024/01/19 02:59:47;;;;;;;1.27;0.80;;;21.80;37.30;;;;;;5110064;28;20109;-35
2024/01/19 03:02:14;;;;;;;1.20;1.00;;;21.80;37.30;;;;;;5110138;28;20023;-32
2024/01/19 03:04:40;;;;;;;0.93;0.57;;;21.80;37.20;;;;;;5117982;28;20036;-35
2024/01/19 03:07:07;;;;;;;0.95;0.70;;;21.80;37.20;;;;;;5115425;28;20051;-33
2024/01/19 03:09:33;;;;;;;1.08;0.90;;;21.70;37.20;;;;;;5116986;28;20587;-36
2024/01/19 03:11:59;;;;;;;1.10;0.70;;;21.70;37.20;;;;;;5114594;28;20035;-35
2024/01/19 03:14:26;;;;;;;0.93;0.60;;;21.80;37.30;;;;;;5111779;28;20053;-40
2024/01/19 03:16:52;;;;;;;1.15;0.85;;;21.80;37.30;;;;;;5116595;28;20088;-35
2024/01/19 03:19:18;;;;;;;0.90;0.70;;;21.80;37.30;;;;;;5114598;28;20039;-34
2024/01/19 03:21:44;;;;;;;0.90;0.77;;;21.80;37.30;;;;;;5113360;28;20042;-32
2024/01/19 03:24:10;;;;;;;0.80;0.70;;;21.80;37.20;;;;;;5114066;28;20127;-37
2024/01/19 03:26:36;;;;;;;1.00;0.70;;;21.80;37.30;;;;;;5111400;28;20038;-36
2024/01/19 03:29:03;;;;;;;1.00;0.80;;;21.80;37.30;;;;;;5112124;28;20031;-34
2024/01/19 03:31:29;;;;;;;1.00;0.87;;;21.80;37.40;;;;;;5113793;28;20035;-36
2024/01/19 03:33:55;;;;;;;1.67;0.80;;;21.90;37.40;;;;;;5118747;28;20352;-35
2024/01/19 03:36:21;;;;;;;1.00;0.88;;;21.80;37.30;;;;;;5117394;28;20016;-35
2024/01/19 03:38:47;;;;;;;0.60;0.60;;;21.80;37.30;;;;;;5111603;28;20453;-35
2024/01/19 03:41:13;;;;;;;0.98;0.80;;;21.80;37.30;;;;;;5113515;27;20031;-36
2024/01/19 03:43:41;;;;;;;1.27;0.90;;;21.80;37.30;;;;;;5116480;28;20051;-37
2024/01/19 03:46:07;;;;;;;0.85;0.80;;;21.80;37.30;;;;;;5118099;28;20036;-37
2024/01/19 03:48:34;;;;;;;2.97;0.95;;;21.90;37.30;;;;;;5120217;27;20563;-37
2024/01/19 03:51:00;;;;;;;1.00;0.80;;;21.90;37.30;;;;;;5113086;28;20063;-31
2024/01/19 03:53:27;;;;;;;1.52;0.80;;;21.80;37.20;;;;;;5119561;28;20023;-37
2024/01/19 03:55:53;;;;;;;1.35;0.98;;;21.80;37.30;;;;;;5116989;28;20034;-35
2024/01/19 03:58:19;;;;;;;2.80;0.77;;;21.80;37.30;;;;;;5117638;27;20663;-33
2024/01/19 04:00:45;;;;;;;1.98;0.95;;;21.90;37.40;;;;;;5117140;28;20039;-34
2024/01/19 04:03:11;;;;;;;1.20;0.93;;;21.90;37.40;;;;;;5113563;28;20071;-33
2024/01/19 04:05:38;;;;;;;1.10;1.00;;;21.90;37.40;;;;;;5117005;28;20054;-34
2024/01/19 04:08:04;;;;;;;1.00;0.80;;;21.80;37.40;;;;;;5117707;28;20020;-34
2024/01/19 04:10:30;;;;;;;0.95;0.85;;;21.80;37.40;;;;;;5115080;28;20031;-34
2024/01/19 04:12:56;;;;;;;1.83;0.73;;;21.80;37.40;;;;;;5120841;28;20698;-34
2024/01/19 04:15:22;;;;;;;1.27;0.85;;;21.90;37.50;;;;;;5117465;27;20057;-37
2024/01/19 04:17:48;;;;;;;0.80;0.75;;;21.90;37.40;;;;;;5118719;27;20027;-38
2024/01/19 04:20:15;;;;;;;1.05;0.90;;;21.90;37.40;;;;;;5116331;28;20512;-33
2024/01/19 04:22:41;;;;;;;1.23;0.98;;;21.90;37.40;;;;;;5111995;28;20062;-34
2024/01/19 04:25:07;;;;;;;1.27;0.90;;;21.80;37.30;;;;;;5119064;28;20040;-35
2024/01/19 04:27:33;;;;;;;1.00;0.90;;;21.80;37.30;;;;;;5111665;28;20044;-35
2024/01/19 04:29:59;;;;;;;0.85;0.73;;;21.90;37.40;;;;;;5108207;28;20050;-36
2024/01/19 04:32:26;;;;;;;1.20;0.95;;;21.90;37.40;;;;;;5115480;28;20031;-35
2024/01/19 04:34:52;;;;;;;1.00;0.88;;;21.90;37.30;;;;;;5112309;28;20051;-37
2024/01/19 04:37:18;;;;;;;1.38;1.02;;;21.90;37.30;;;;;;5112144;27;20084;-36
2024/01/19 04:39:44;;;;;;;1.15;1.00;;;21.80;37.30;;;;;;5115458;28;20494;-35
2024/01/19 04:42:12;;;;;;;1.17;0.95;;;21.80;37.30;;;;;;5117341;28;20053;-35
2024/01/19 04:44:38;;;;;;;1.27;1.00;;;21.90;37.40;;;;;;5114344;28;20055;-36
2024/01/19 04:47:05;;;;;;;1.13;1.03;;;21.90;37.30;;;;;;5116460;28;20511;-36
2024/01/19 04:49:31;;;;;;;1.52;1.20;;;21.90;37.30;;;;;;5113709;27;20351;-32
2024/01/19 04:51:57;;;;;;;1.10;0.80;;;22.00;37.80;;;;;;5115015;28;20077;-38
2024/01/19 04:54:23;;;;;;;1.50;1.00;;;22.10;37.20;;;;;;5113476;27;20024;-34
2024/01/19 04:56:50;;;;;;;0.73;0.70;;;22.30;37.00;;;;;;5114859;27;20055;-36
2024/01/19 04:59:16;;;;;;;0.98;0.80;;;22.50;36.90;;;;;;5115262;28;20027;-38
2024/01/19 05:01:42;;;;;;;1.20;0.98;;;22.50;36.80;;;;;;5115944;28;20051;-37
2024/01/19 05:04:08;;;;;;;1.27;0.98;;;22.60;36.90;;;;;;5118332;28;20054;-37
2024/01/19 05:06:34;;;;;;;1.50;1.00;;;22.70;36.80;;;;;;5117016;28;20077;-37
2024/01/19 05:09:00;;;;;;;1.00;0.80;;;22.80;36.90;;;;;;5114437;28;20035;-37
2024/01/19 05:11:27;;;;;;;1.23;0.95;;;22.90;36.90;;;;;;5113204;28;20019;-36
2024/01/19 05:13:53;;;;;;;1.23;1.05;;;22.90;36.70;;;;;;5113580;27;20042;-38
2024/01/19 05:16:19;;;;;;;0.80;0.80;;;23.00;36.60;;;;;;5112875;28;20031;-36
2024/01/19 05:18:45;;;;;;;1.67;0.98;;;23.10;36.60;;;;;;5118944;28;20054;-37
2024/01/19 05:21:11;;;;;;;1.10;0.80;;;23.20;36.50;;;;;;5116883;28;20066;-39
2024/01/19 05:23:37;;;;;;;1.40;0.98;;;23.30;36.50;;;;;;5116208;28;20027;-38
2024/01/19 05:26:08;;;;;;;1.52;1.00;;;23.30;36.50;;;;;;5117683;28;20038;-38
2024/01/19 05:28:36;;;;;;;1.13;0.93;;;23.40;36.40;;;;;;5117161;27;20036;-39
2024/01/19 05:31:03;;;;;;;1.13;1.00;;;23.50;36.40;;;;;;5115098;28;20036;-37
2024/01/19 05:33:32;;;;;;;1.20;0.90;;;23.50;36.10;;;;;;5115974;28;20038;-39
2024/01/19 05:35:58;;;;;;;1.05;0.95;;;23.60;36.20;;;;;;5117471;28;20758;-37
2024/01/19 05:38:24;;;;;;;1.45;0.95;;;23.70;36.10;;;;;;5115888;28;20057;-38
2024/01/19 05:40:51;;;;;;;1.65;1.05;;;23.80;36.10;;;;;;5115012;28;20084;-36
2024/01/19 05:43:17;;;;;;;1.30;1.05;;;23.80;36.00;;;;;;5113498;28;20035;-36
2024/01/19 05:45:43;;;;;;;1.05;1.00;;;23.80;36.00;;;;;;5116377;28;20057;-38
2024/01/19 05:48:09;;;;;;;1.20;1.00;;;23.90;35.80;;;;;;5117462;28;20035;-38
2024/01/19 05:50:35;;;;;;;1.45;0.88;;;24.00;35.70;;;;;;5117009;28;20069;-39
2024/01/19 05:53:01;;;;;;;1.17;1.00;;;24.00;35.70;;;;;;5114825;27;20032;-38
2024/01/19 05:55:27;;;;;;;1.08;0.93;;;24.10;35.70;;;;;;5116455;28;20037;-38
2024/01/19 05:57:54;;;;;;;1.10;1.00;;;24.20;35.60;;;;;;5116919;27;20024;-38
2024/01/19 06:00:20;;;;;;;1.38;1.10;;;24.30;35.60;;;;;;5116719;28;20103;-39
2024/01/19 06:02:46;;;;;;;1.58;0.98;;;24.30;35.50;;;;;;5120575;27;20023;-38
2024/01/19 06:05:12;;;;;;;1.60;1.45;;;24.30;35.40;;;;;;5119222;28;20039;-37
2024/01/19 06:07:39;;;;;;;1.35;1.17;;;24.30;35.30;;;;;;5115426;28;20031;-39
2024/01/19 06:10:06;;;;;;;1.40;1.30;;;24.30;35.50;;;;;;5116889;28;20040;-38
2024/01/19 06:12:32;;;;;;;1.45;1.30;;;24.20;35.70;;;;;;5111175;27;20920;-36
2024/01/19 06:14:58;;;;;;;3.60;1.20;;;24.10;35.70;;;;;;5113632;28;20028;-35
2024/01/19 06:17:24;;;;;;;1.80;1.20;;;24.00;35.60;;;;;;5117960;28;20024;-37
2024/01/19 06:19:51;;;;;;;2.08;1.17;;;23.90;35.80;;;;;;5118307;28;20040;-38
2024/01/19 06:22:17;;;;;;;1.23;1.13;;;23.90;35.90;;;;;;5117350;28;20046;-37
2024/01/19 06:24:43;;;;;;;1.98;1.20;;;23.80;35.80;;;;;;5117669;28;20038;-38
2024/01/19 06:27:09;;;;;;;2.22;1.50;;;23.80;35.90;;;;;;5113873;28;21692;-38
2024/01/19 06:29:35;;;;;;;2.37;1.17;;;23.70;36.00;;;;;;5114916;28;20035;-39
2024/01/19 06:32:02;;;;;;;3.72;1.50;;;23.70;36.10;;;;;;5116727;28;20500;-34
2024/01/19 06:34:28;;;;;;;2.15;1.30;;;23.60;36.20;;;;;;5115453;28;20035;-37
2024/01/19 06:36:54;;;;;;;1.70;1.43;;;23.50;36.20;;;;;;5117837;28;20036;-38
2024/01/19 06:39:20;;;;;;;2.40;1.42;;;23.50;36.20;;;;;;5115450;27;20116;-38
2024/01/19 06:41:46;;;;;;;1.80;1.50;;;23.50;36.20;;;;;;5117320;27;20035;-37
2024/01/19 06:44:13;;;;;;;2.92;1.23;;;23.40;36.20;;;;;;5116818;28;20035;-34
2024/01/19 06:46:45;;;;;;;2.30;1.27;;;23.30;36.30;;;;;;5115535;28;20043;-37
2024/01/19 06:49:11;;;;;;;1.60;1.30;;;23.30;36.40;;;;;;5114773;28;20056;-37
2024/01/19 06:51:38;;;;;;;1.77;1.30;;;23.20;36.50;;;;;;5117693;27;20035;-36
2024/01/19 06:54:04;;;;;;;1.55;1.25;;;23.20;36.50;;;;;;5116515;28;20043;-36
2024/01/19 06:56:30;;;;;;;1.45;1.35;;;23.20;36.40;;;;;;5114400;28;20087;-38
2024/01/19 06:58:56;;;;;;;1.50;1.40;;;23.20;36.60;;;;;;5112123;28;20150;-36
2024/01/19 07:01:25;;;;;;;1.63;1.30;;;23.10;36.70;;;;;;5117377;28;20071;-36
2024/01/19 07:03:51;;;;;;;1.60;1.27;;;23.00;36.70;;;;;;5117424;28;20484;-38
2024/01/19 07:06:18;;;;;;;1.52;1.33;;;23.00;36.90;;;;;;5115762;28;20043;-34
2024/01/19 07:08:44;;;;;;;1.52;1.40;;;22.90;36.90;;;;;;5122623;27;20024;-36
2024/01/19 07:11:11;;;;;;;1.70;1.30;;;22.90;36.70;;;;;;5119152;28;20051;-38
2024/01/19 07:13:37;;;;;;;1.65;1.55;;;22.90;36.90;;;;;;5119688;27;20174;-37
2024/01/19 07:16:04;;;;;;;1.83;1.45;;;22.90;37.00;;;;;;5120752;28;20080;-37
2024/01/19 07:18:30;;;;;;;2.05;1.83;;;22.80;37.10;;;;;;5117749;27;20031;-33
2024/01/19 07:20:57;;;;;;;3.30;1.65;;;22.70;37.20;;;;;;5119708;28;20032;-40
2024/01/19 07:23:23;;;;;;;1.30;1.20;;;22.70;37.50;;;;;;5117995;28;20019;-36
2024/01/19 07:25:49;;;;;;;1.50;1.40;;;22.60;37.50;;;;;;5119216;28;20071;-36
2024/01/19 07:28:15;;;;;;;2.28;1.63;;;22.70;37.80;;;;;;5121163;28;20111;-37
2024/01/19 07:30:41;;;;;;;1.73;1.38;;;22.70;37.70;;;;;;5121420;28;20067;-36
2024/01/19 07:33:07;;;;;;;1.50;1.40;;;22.60;37.80;;;;;;5120238;28;20028;-33
2024/01/19 07:35:33;;;;;;;1.98;1.42;;;22.60;37.90;;;;;;5120802;28;20035;-33
2024/01/19 07:37:59;;;;;;;1.63;1.52;;;22.50;37.90;;;;;;5133300;27;20034;-35
2024/01/19 07:40:26;;;;;;;1.30;1.20;;;22.50;37.90;;;;;;5119238;28;20023;-34
2024/01/19 07:42:52;;;;;;;1.50;1.25;;;22.50;37.80;;;;;;5120421;27;20050;-34
2024/01/19 07:45:18;;;;;;;2.10;1.40;;;22.50;37.90;;;;;;5120627;28;20128;-31
2024/01/19 07:47:45;;;;;;;1.52;1.40;;;22.50;37.90;;;;;;5118430;28;20031;-35
2024/01/19 07:50:11;;;;;;;1.63;1.48;;;22.40;38.00;;;;;;5120480;28;20042;-34
2024/01/19 07:52:38;;;;;;;1.70;1.40;;;22.40;38.10;;;;;;5122924;28;20032;-34
2024/01/19 07:55:05;;;;;;;2.97;1.52;;;22.30;38.10;;;;;;5118047;28;20035;-35
2024/01/19 07:57:31;;;;;;;1.33;1.20;;;22.30;38.80;;;;;;5118382;27;20082;-36
2024/01/19 07:59:57;;;;;;;1.50;1.40;;;22.30;38.20;;;;;;5120757;27;20059;-36
2024/01/19 08:02:24;;;;;;;1.45;1.30;;;22.40;38.30;;;;;;5119338;28;20028;-34
2024/01/19 08:04:50;;;;;;;1.67;1.58;;;22.30;38.40;;;;;;5116537;28;20023;-36
2024/01/19 08:07:16;;;;;;;2.97;1.38;;;22.30;38.50;;;;;;5119540;27;20059;-33
2024/01/19 08:09:42;;;;;;;5.32;1.48;;;22.30;38.50;;;;;;5117837;28;20051;-38
2024/01/19 08:12:08;;;;;;;1.52;1.42;;;22.20;38.50;;;;;;5117580;27;20031;-36
2024/01/19 08:14:34;;;;;;;1.70;1.30;;;22.20;38.50;;;;;;5118848;28;20032;-37
2024/01/19 08:17:01;;;;;;;2.42;1.50;;;22.20;38.60;;;;;;5115771;27;21267;-33
2024/01/19 08:19:27;;;;;;;2.95;1.70;;;22.20;38.60;;;;;;5115783;28;20057;-35
2024/01/19 08:21:53;;;;;;;1.83;1.50;;;22.20;38.70;;;;;;5118061;27;20053;-32
2024/01/19 08:24:20;;;;;;;1.67;1.40;;;22.10;38.70;;;;;;5118750;28;20032;-35
2024/01/19 08:26:46;;;;;;;1.97;1.40;;;22.10;38.80;;;;;;5117029;28;20046;-35
2024/01/19 08:29:12;;;;;;;1.50;1.30;;;22.10;38.80;;;;;;5117534;28;20481;-34
2024/01/19 08:31:38;;;;;;;1.77;1.45;;;22.10;38.90;;;;;;5114833;28;20072;-36
2024/01/19 08:34:04;;;;;;;1.73;1.30;;;22.20;38.80;;;;;;5116196;27;20482;-36
2024/01/19 08:36:30;;;;;;;2.17;1.50;;;22.20;38.70;;;;;;5118777;27;20106;-32
2024/01/19 08:38:57;;;;;;;1.48;1.38;;;22.10;38.80;;;;;;5118293;28;20042;-36
2024/01/19 08:41:24;;;;;;;2.00;1.30;;;22.10;38.90;;;;;;5117645;28;21173;-37
2024/01/19 08:43:51;;;;;;;1.30;1.20;;;22.00;38.90;;;;;;5118828;28;20062;-33
2024/01/19 08:46:17;;;;;;;1.33;1.23;;;22.10;38.90;;;;;;5118868;28;20066;-35
2024/01/19 08:48:45;;;;;;;1.30;1.20;;;22.10;39.10;;;;;;5118243;27;20812;-34
2024/01/19 08:51:19;;;;;;;1.98;1.58;;;22.10;39.20;;;;;;5120102;28;20611;-34
2024/01/19 08:53:45;;;;;;;1.42;1.33;;;22.00;39.20;;;;;;5117605;28;20042;-34
2024/01/19 08:56:11;;;;;;;1.52;1.30;;;22.00;39.30;;;;;;5117580;28;20582;-34
2024/01/19 08:58:38;;;;;;;1.40;1.20;;;21.90;39.30;;;;;;5118611;28;20051;-33
2024/01/19 09:01:05;;;;;;;;;;;21.90;39.30;;;;;;5117236;28;20051;-33
2024/01/19 09:03:31;;;;;;;2.03;1.30;;;21.90;39.40;;;;;;5117756;28;19959;-36
2024/01/19 09:05:57;;;;;;;1.40;1.30;;;22.00;39.40;;;;;;5120288;27;20043;-36
2024/01/19 09:08:23;;;;;;;1.42;1.20;;;21.90;39.50;;;;;;5118122;28;20028;-31
2024/01/19 09:10:49;;;;;;;1.40;1.25;;;21.90;39.50;;;;;;5119553;28;20478;-30
2024/01/19 09:13:15;;;;;;;1.83;1.40;;;21.90;39.60;;;;;;5117369;27;20024;-32
2024/01/19 09:15:42;;;;;;;1.83;1.15;;;21.80;39.60;;;;;;5117793;27;20040;-37
2024/01/19 09:18:09;;;;;;;1.52;1.35;;;21.80;39.60;;;;;;5116189;27;20036;-37
2024/01/19 09:20:35;;;;;;;1.30;1.20;;;21.90;39.70;;;;;;5113257;27;20047;-32
2024/01/19 09:23:01;;;;;;;1.30;1.10;;;21.90;39.70;;;;;;5120236;28;20027;-34
2024/01/19 09:25:27;;;;;;;2.80;0.95;;;21.90;39.80;;;;;;5119476;28;20061;-36
2024/01/19 09:27:54;;;;;;;1.70;1.20;;;21.80;39.70;;;;;;5118989;28;20077;-37
2024/01/19 09:30:21;;;;;;;1.25;1.13;;;21.80;39.90;;;;;;5116926;27;20046;-35
2024/01/19 09:32:47;;;;;;;;;;;21.80;39.70;;;;;;5119615;28;20088;-35
2024/01/19 09:35:14;;;;;;;1.55;1.27;;;21.90;40.50;;;;;;5117562;27;20025;-36
2024/01/19 09:37:40;;;;;;;1.77;1.30;;;21.90;40.80;;;;;;5117853;28;20047;-36
2024/01/19 09:40:07;;;;;;;1.20;1.00;;;21.90;40.70;;;;;;5116614;28;20031;-40
2024/01/19 09:42:34;;;;;;;1.27;1.17;;;21.90;40.30;;;;;;5117827;27;20032;-38
2024/01/19 09:45:04;;;;;;;1.35;1.15;;;22.00;40.10;;;;;;5115626;28;20059;-37
2024/01/19 09:47:39;;;;;;;1.50;1.08;;;22.00;40.20;;;;;;5115676;28;20803;-37
2024/01/19 09:50:06;;;;;;;2.55;0.90;;;21.90;40.40;;;;;;5115331;27;20030;-35
2024/01/19 09:52:53;;;;;;;1.08;0.93;;;22.00;40.50;;;;;;5118655;28;20146;-34
2024/01/19 09:55:20;;;;;;;1.05;0.70;;;22.00;40.40;;;;;;5116203;28;20046;-37
2024/01/19 09:57:49;;;;;;;1.20;1.10;;;21.90;40.50;;;;;;5112728;27;20024;-34
2024/01/19 10:00:17;;;;;;;1.88;1.02;;;21.90;40.60;;;;;;5117851;27;20039;-37
2024/01/19 10:02:45;;;;;;;1.10;1.00;;;21.80;40.60;;;;;;5118982;28;20058;-36
2024/01/19 10:05:15;;;;;;;1.33;0.98;;;21.80;40.50;;;;;;5113692;28;20039;-36
2024/01/19 10:07:42;;;;;;;0.95;0.90;;;21.80;40.40;;;;;;5118603;28;20020;-35
2024/01/19 10:10:08;;;;;;;;;;;21.90;40.50;;;;;;5117400;28;20042;-38
2024/01/19 10:12:35;;;;;;;1.98;1.20;;;21.90;40.50;;;;;;5118603;28;19947;-33
2024/01/19 10:15:01;;;;;;;1.48;1.10;;;21.80;41.10;;;;;;5098168;28;20096;-35
2024/01/19 10:17:27;;;;;;;0.80;0.80;;;21.80;40.60;;;;;;5115353;28;20043;-38
2024/01/19 10:19:54;;;;;;;0.88;0.80;;;21.80;40.60;;;;;;5117553;28;20027;-36
2024/01/19 10:22:28;;;;;;;1.35;0.80;;;21.70;40.50;;;;;;5116183;27;20040;-38
2024/01/19 10:25:05;;;;;;;1.02;0.90;;;21.80;40.50;;;;;;5117885;28;20035;-34
2024/01/19 10:27:51;;;;;;;0.80;0.80;;;21.80;40.60;;;;;;5112707;28;20044;-37
2024/01/19 10:30:27;;;;;;;0.80;0.70;;;21.80;40.60;;;;;;5115780;28;20038;-38
2024/01/19 10:33:02;;;;;;;1.10;0.90;;;21.80;40.60;;;;;;5116862;28;20027;-33
2024/01/19 10:35:28;;;;;;;0.80;0.80;;;21.70;40.60;;;;;;5117989;28;20035;-35
2024/01/19 10:38:03;;;;;;;0.88;0.85;;;21.60;40.60;;;;;;5115151;28;20020;-38
2024/01/19 10:40:31;;;;;;;0.93;0.80;;;21.70;40.60;;;;;;5116378;28;20032;-35
2024/01/19 10:42:57;;;;;;;0.82;0.75;;;21.70;40.60;;;;;;5117484;28;20030;-32
2024/01/19 10:45:24;;;;;;;1.27;0.90;;;21.80;40.40;;;;;;5114835;28;20036;-35
2024/01/19 10:47:52;;;;;;;1.20;0.90;;;21.80;40.30;;;;;;5111513;28;20032;-36
2024/01/19 10:50:19;;;;;;;0.73;0.70;;;21.80;40.50;;;;;;5111949;28;22124;-37
2024/01/19 10:52:51;;;;;;;1.10;0.80;;;21.70;40.50;;;;;;5116407;28;20023;-33
2024/01/19 10:55:28;;;;;;;0.82;0.68;;;21.70;40.60;;;;;;5114976;28;20032;-37
2024/01/19 10:58:06;;;;;;;0.60;0.60;;;21.70;40.60;;;;;;5117826;28;20035;-35
2024/01/19 11:00:32;;;;;;;0.80;0.80;;;21.80;40.60;;;;;;5116306;28;20688;-34
2024/01/19 11:03:00;;;;;;;1.93;0.63;;;21.80;40.70;;;;;;5115972;28;20035;-33
2024/01/19 11:05:26;;;;;;;;;;;21.70;40.70;;;;;;5116836;28;20037;-35
2024/01/19 11:07:59;;;;;;;0.80;0.80;;;21.70;41.40;;;;;;5115123;28;19918;-34
2024/01/19 11:10:26;;;;;;;0.90;0.63;;;21.60;40.80;;;;;;5114950;28;20027;-35
2024/01/19 11:12:57;;;;;;;1.02;0.70;;;21.60;40.70;;;;;;5119693;28;20109;-34
2024/01/19 11:15:28;;;;;;;0.57;0.57;;;21.60;40.70;;;;;;5114124;28;20042;-37
2024/01/19 11:17:59;;;;;;;0.73;0.70;;;21.70;40.70;;;;;;5114012;28;20031;-33
2024/01/19 11:20:25;;;;;;;0.80;0.50;;;21.70;40.70;;;;;;5117146;28;20016;-32
2024/01/19 11:22:52;;;;;;;1.42;0.68;;;21.60;40.70;;;;;;5113884;28;20036;-35
2024/01/19 11:25:35;;;;;;;1.00;0.60;;;21.60;40.80;;;;;;5114748;28;20039;-34
2024/01/19 11:28:16;;;;;;;2.08;0.60;;;21.50;40.80;;;;;;5113701;28;20047;-37
2024/01/19 11:31:11;;;;;;;0.60;0.57;;;21.50;40.70;;;;;;5116780;28;20044;-36
2024/01/19 11:33:38;;;;;;;0.80;0.60;;;21.60;40.70;;;;;;5114782;28;20032;-35
2024/01/19 11:36:04;;;;;;;1.83;0.57;;;21.60;40.80;;;;;;5110537;28;20712;-34
2024/01/19 11:38:45;;;;;;;0.47;0.47;;;21.50;40.80;;;;;;5110881;28;20024;-35
2024/01/19 11:41:33;;;;;;;0.93;0.60;;;21.60;40.60;;;;;;5109684;28;20033;-36
2024/01/19 11:44:03;;;;;;;0.70;0.50;;;21.70;40.50;;;;;;5108718;28;20023;-37
2024/01/19 11:46:43;;;;;;;0.50;0.50;;;21.70;40.60;;;;;;5111907;28;20067;-37
2024/01/19 11:49:42;;;;;;;0.70;0.70;;;21.70;40.60;;;;;;5111056;28;20038;-34
2024/01/19 11:52:20;;;;;;;0.77;0.70;;;21.70;40.60;;;;;;5068147;28;20601;-36
2024/01/19 11:54:46;;;;;;;0.90;0.60;;;21.60;40.70;;;;;;5071281;28;20041;-37
2024/01/19 11:57:23;;;;;;;0.80;0.60;;;21.60;40.70;;;;;;5071875;28;20048;-35
2024/01/19 11:59:49;;;;;;;0.70;0.70;;;21.50;40.80;;;;;;5070977;28;20040;-35
2024/01/19 12:02:30;;;;;;;0.95;0.75;;;21.50;40.80;;;;;;5070115;28;20036;-35
2024/01/19 12:04:58;;;;;;;0.73;0.60;;;21.50;40.60;;;;;;5073465;28;20675;-35
2024/01/19 12:07:24;;;;;;;4.80;0.60;;;21.60;40.60;;;;;;5092729;28;20504;-35
2024/01/19 12:10:26;;;;;;;0.63;0.57;;;21.60;40.70;;;;;;5081350;28;20028;-34
2024/01/19 12:12:53;;;;;;;0.60;0.60;;;21.50;40.60;;;;;;5024332;28;20446;-35
2024/01/19 12:15:19;;;;;;;0.55;0.55;;;21.50;40.80;;;;;;5023317;28;20811;-34
2024/01/19 12:17:45;;;;;;;0.50;0.50;;;21.40;40.80;;;;;;5021658;28;20053;-36
2024/01/19 12:20:15;;;;;;;0.93;0.75;;;21.40;40.80;;;;;;5001826;28;20034;-35
2024/01/19 12:22:42;;;;;;;0.60;0.60;;;21.50;40.70;;;;;;5016056;28;20097;-35
2024/01/19 12:25:38;;;;;;;0.80;0.80;;;21.50;40.80;;;;;;5019602;28;20042;-34
2024/01/19 12:28:07;;;;;;;0.95;0.90;;;21.40;40.70;;;;;;4971216;28;20387;-33
2024/01/19 12:30:34;;;;;;;0.90;0.60;;;21.30;40.70;;;;;;4980594;28;20528;-36
2024/01/19 12:33:14;;;;;;;;;;;21.40;40.70;;;;;;4977871;28;20168;-31
2024/01/19 12:35:41;;;;;;;0.55;0.50;;;21.50;40.50;;;;;;4977473;28;19910;-33
2024/01/19 12:38:07;;;;;;;2.10;0.73;;;21.60;40.50;;;;;;4978078;28;20107;-35
2024/01/19 12:40:34;;;;;;;0.70;0.68;;;21.60;40.60;;;;;;4980032;28;20043;-33
2024/01/19 12:43:03;;;;;;;0.93;0.80;;;21.50;40.70;;;;;;4978853;28;20039;-34
2024/01/19 12:45:30;;;;;;;1.52;0.70;;;21.40;40.60;;;;;;4979377;28;20055;-34
2024/01/19 12:47:59;;;;;;;0.50;0.50;;;21.30;40.80;;;;;;5035556;28;20088;-32
2024/01/19 12:50:27;;;;;;;1.95;0.60;;;21.40;40.90;;;;;;5036096;28;20033;-36